Time;durP1;ratioP1;P1;durP2;ratioP2;P2;SDS_P1;SDS_P2;PMS_P1;PMS_P2;Temp;Humidity;BMP_temperature;BMP_pressure;BME280_temperature;BME280_humidity;BME280_pressure;Samples;Min_cycle;Max_cycle;Signal;HPM_P1;HPM_P2
2023/01/17 00:01:51;;;;;;;;;;;3.20;88.60;;;-151.14;100.00;62537.16;5029260;28;19925;-89
2023/01/17 00:10:06;;;;;;;;;;;3.20;88.80;;;1.87;100.00;62537.16;4940739;28;19928;-89
2023/01/17 00:12:34;;;;;;;;;;;3.20;88.80;;;-151.14;100.00;62537.16;4999629;28;19943;-89
2023/01/17 00:15:02;;;;;;;;;;;3.20;88.80;;;1.86;100.00;62537.16;4995898;28;20177;-90
2023/01/17 00:17:30;;;;;;;;;;;3.20;88.80;;;-151.14;100.00;62537.16;5012021;28;20206;-90
2023/01/17 01:35:27;;;;;;;;;;;3.20;88.80;;;-151.14;100.00;62537.16;5007433;28;19929;-90
2023/01/17 01:37:55;;;;;;;;;;;3.20;88.80;;;-151.14;100.00;62537.16;4991457;28;19928;-89
2023/01/17 01:40:23;;;;;;;;;;;3.20;88.80;;;1.82;100.00;62537.16;4991510;28;19922;-89
2023/01/17 01:42:53;;;;;;;;;;;3.20;88.80;;;1.82;100.00;62537.16;5007811;28;19928;-90
2023/01/17 01:45:24;;;;;;;;;;;3.20;88.80;;;1.82;100.00;62537.16;4990706;28;19922;-90
2023/01/17 01:47:55;;;;;;;;;;;3.20;88.80;;;-151.14;100.00;62537.16;5007828;28;19930;-90
2023/01/17 01:50:23;;;;;;;;;;;3.20;88.90;;;-151.14;100.00;62537.16;4991174;28;20213;-89
2023/01/17 01:52:52;;;;;;;;;;;3.20;88.80;;;1.84;100.00;62537.16;4991336;28;20210;-90
2023/01/17 01:55:21;;;;;;;;;;;3.20;88.90;;;-151.14;100.00;62537.16;5006946;28;19926;-90
2023/01/17 01:57:50;;;;;;;;;;;3.20;88.90;;;-151.14;100.00;62537.16;4991297;28;19922;-90
2023/01/17 02:00:23;;;;;;;;;;;3.20;88.90;;;-151.14;100.00;62537.16;5007329;28;19922;-90
2023/01/17 02:02:51;;;;;;;;;;;3.20;88.90;;;-151.14;100.00;62537.16;5007479;28;19922;-88
2023/01/17 02:05:20;;;;;;;;;;;3.20;88.80;;;-151.14;100.00;62537.16;4990511;28;19929;-89
2023/01/17 02:07:50;;;;;;;;;;;3.20;88.80;;;-151.14;100.00;62537.16;4991161;28;19922;-90
2023/01/17 02:10:18;;;;;;;;;;;3.20;88.80;;;-151.14;100.00;62537.16;5007381;28;19922;-90
2023/01/17 02:12:46;;;;;;;;;;;3.20;88.80;;;1.82;100.00;62537.16;4991205;28;19922;-89
2023/01/17 02:15:14;;;;;;;;;;;3.20;88.90;;;-151.14;100.00;62537.16;5006646;28;19922;-90
2023/01/17 02:17:48;;;;;;;;;;;3.20;88.90;;;1.80;100.00;62537.16;5007282;28;19922;-90
2023/01/17 02:20:28;;;;;;;;;;;3.20;88.90;;;1.81;100.00;62537.16;4990861;28;19922;-90
2023/01/17 02:23:30;;;;;;;;;;;3.20;88.80;;;-151.14;100.00;62537.16;5007239;28;19928;-90
2023/01/17 02:26:33;;;;;;;;;;;3.20;88.80;;;-151.14;100.00;62537.16;4990359;28;19922;-89
2023/01/17 02:29:19;;;;;;;;;;;3.20;88.80;;;-151.14;100.00;62537.16;4971520;28;19928;-90
2023/01/17 02:31:51;;;;;;;;;;;3.20;88.90;;;-151.14;100.00;62537.16;4994374;28;19928;-90
2023/01/17 02:34:20;;;;;;;;;;;3.20;88.90;;;-151.14;100.00;62537.16;4994194;28;19921;-90
2023/01/17 02:36:52;;;;;;;;;;;3.10;88.90;;;1.81;100.00;62537.16;4993534;28;19922;-89
2023/01/17 02:39:21;;;;;;;;;;;3.20;88.90;;;1.81;100.00;62537.16;5010277;28;19922;-89
2023/01/17 02:41:51;;;;;;;;;;;3.20;88.90;;;1.81;100.00;62537.16;5010451;28;19922;-90
2023/01/17 02:44:20;;;;;;;;;;;3.20;88.90;;;-151.14;100.00;62537.16;5010331;28;20235;-90
2023/01/17 02:46:52;;;;;;;;;;;3.20;88.90;;;1.80;100.00;62537.16;5009851;28;19928;-88
2023/01/17 02:49:21;;;;;;;;;;;3.10;88.90;;;-151.14;100.00;62537.16;5010134;28;19922;-90
2023/01/17 02:52:00;;;;;;;;;;;3.20;88.90;;;1.80;100.00;62537.16;5001142;28;19921;-89
2023/01/17 02:54:35;;;;;;;;;;;3.20;88.90;;;1.80;100.00;62537.16;5013648;28;19928;-88
2023/01/17 02:57:12;;;;;;;;;;;3.20;88.90;;;-151.14;100.00;62537.16;4996563;28;19928;-89
2023/01/17 02:59:43;;;;;;;;;;;3.20;88.90;;;-151.14;100.00;62537.16;5013477;28;19921;-87
2023/01/17 03:02:17;;;;;;;;;;;3.20;88.90;;;-151.14;100.00;62537.16;4997196;28;19928;-90
2023/01/17 03:04:48;;;;;;;;;;;3.20;88.90;;;1.80;100.00;62537.16;5013137;28;19922;-89
2023/01/17 03:07:17;;;;;;;;;;;3.20;88.90;;;1.80;100.00;62537.16;5029231;28;19921;-89
2023/01/17 03:09:45;;;;;;;;;;;3.20;88.90;;;1.81;100.00;62537.16;4996904;28;19921;-89
2023/01/17 03:12:13;;;;;;;;;;;3.10;88.90;;;-151.14;100.00;62537.16;5012900;28;19921;-90
2023/01/17 03:14:41;;;;;;;;;;;3.20;88.90;;;1.80;100.00;62537.16;5012558;28;19928;-89
2023/01/17 03:17:09;;;;;;;;;;;3.20;88.90;;;-151.14;100.00;62537.16;4996393;28;19936;-90
2023/01/17 03:19:38;;;;;;;;;;;3.20;88.90;;;-151.14;100.00;62537.16;4996762;28;19927;-90
2023/01/17 03:22:06;;;;;;;;;;;3.10;89.00;;;-151.14;100.00;62537.16;4996919;28;20239;-89
2023/01/17 03:24:34;;;;;;;;;;;3.20;88.90;;;1.82;100.00;62537.16;5013125;28;20121;-90
2023/01/17 03:27:02;;;;;;;;;;;3.20;88.90;;;-151.14;100.00;62537.16;5012376;28;19922;-90
2023/01/17 03:29:30;;;;;;;;;;;3.20;88.90;;;1.81;100.00;62537.16;5029346;28;19921;-89
2023/01/17 03:31:58;;;;;;;;;;;3.20;88.90;;;-151.14;100.00;62537.16;5029539;28;19922;-90
2023/01/17 03:34:26;;;;;;;;;;;3.20;88.90;;;1.80;100.00;62537.16;5012854;28;19928;-90
2023/01/17 03:36:55;;;;;;;;;;;3.20;88.90;;;-151.14;100.00;62537.16;5028702;28;19922;-89
2023/01/17 03:39:23;;;;;;;;;;;3.20;88.90;;;1.79;100.00;62537.16;5011849;28;19922;-88
2023/01/17 03:41:51;;;;;;;;;;;3.20;88.90;;;-151.14;100.00;62537.16;5012734;28;19928;-89
2023/01/17 03:44:19;;;;;;;;;;;3.10;88.90;;;-151.14;100.00;62537.16;5012809;28;19928;-89
2023/01/17 03:46:47;;;;;;;;;;;3.20;88.80;;;-151.14;100.00;62537.16;5012075;28;19928;-90
2023/01/17 03:49:15;;;;;;;;;;;3.20;88.90;;;-151.14;100.00;62537.16;4996377;28;19935;-90
2023/01/17 03:51:43;;;;;;;;;;;3.20;88.80;;;-151.14;100.00;62537.16;5012730;28;19928;-90
2023/01/17 03:54:12;;;;;;;;;;;3.20;88.80;;;-151.14;100.00;62537.16;5012667;28;20124;-89
2023/01/17 03:56:40;;;;;;;;;;;3.10;88.80;;;1.82;100.00;62537.16;5012182;28;20239;-90
2023/01/17 03:59:08;;;;;;;;;;;3.20;88.80;;;-151.14;100.00;62537.16;4996194;28;19922;-90
2023/01/17 04:01:36;;;;;;;;;;;3.20;88.90;;;-151.14;100.00;62537.16;5012513;28;19921;-89
2023/01/17 04:04:04;;;;;;;;;;;3.20;88.80;;;-151.14;100.00;62537.16;5024976;28;19922;-89
2023/01/17 04:06:32;;;;;;;;;;;3.20;88.80;;;-151.14;100.00;62537.16;5011650;28;19921;-90
2023/01/17 04:09:00;;;;;;;;;;;3.20;88.80;;;-151.14;100.00;62537.16;5028940;28;20094;-90
2023/01/17 04:11:30;;;;;;;;;;;3.10;88.80;;;1.79;100.00;62537.16;4995957;28;19928;-89
2023/01/17 04:13:58;;;;;;;;;;;3.20;88.80;;;-151.14;100.00;62537.16;5013425;28;19929;-90
2023/01/17 04:16:28;;;;;;;;;;;3.10;88.80;;;-151.14;100.00;62537.16;5028181;28;19922;-89
2023/01/17 04:18:56;;;;;;;;;;;3.20;88.80;;;1.78;100.00;62537.16;4995957;28;19927;-89
2023/01/17 04:21:24;;;;;;;;;;;3.20;88.70;;;-151.14;100.00;62537.16;5012256;28;19926;-90
2023/01/17 04:23:51;;;;;;;;;;;3.10;88.80;;;-151.14;100.00;62537.16;5012024;28;19922;-90
2023/01/17 04:26:19;;;;;;;;;;;3.10;88.90;;;-151.14;100.00;62537.16;4995222;28;19921;-89
2023/01/17 04:28:49;;;;;;;;;;;3.10;88.80;;;-151.14;100.00;62537.16;5028719;28;20115;-90
2023/01/17 04:31:17;;;;;;;;;;;3.10;88.80;;;18.10;100.00;62537.16;5028343;28;19927;-90
2023/01/17 04:33:45;;;;;;;;;;;3.10;88.80;;;-151.14;100.00;62537.16;5028580;28;19922;-89
2023/01/17 04:36:13;;;;;;;;;;;3.10;88.80;;;-151.14;100.00;62537.16;4995115;28;19921;-89
2023/01/17 04:38:41;;;;;;;;;;;3.10;88.80;;;1.79;100.00;62537.16;5011944;28;19921;-88
2023/01/17 04:41:09;;;;;;;;;;;3.10;88.80;;;-151.14;100.00;62537.16;5011796;28;20235;-88
2023/01/17 04:43:37;;;;;;;;;;;3.10;88.80;;;-151.14;100.00;62537.16;5011898;28;19931;-88
2023/01/17 04:46:08;;;;;;;;;;;3.10;89.70;;;-151.14;100.00;62537.16;5011217;28;19922;-89
2023/01/17 04:48:37;;;;;;;;;;;3.10;88.90;;;-151.14;100.00;62537.16;5011747;28;19922;-90
2023/01/17 04:51:05;;;;;;;;;;;3.10;88.80;;;-151.14;100.00;62537.16;5011588;28;19928;-90
2023/01/17 04:53:33;;;;;;;;;;;3.10;88.90;;;1.77;100.00;62537.16;5028476;28;19931;-90
2023/01/17 04:56:01;;;;;;;;;;;3.10;88.80;;;-151.14;100.00;62537.16;4994846;28;20117;-90
2023/01/17 04:58:29;;;;;;;;;;;3.10;88.80;;;-151.14;100.00;62537.16;5028206;28;19925;-89
2023/01/17 05:01:01;;;;;;;;;;;3.10;88.90;;;-151.14;100.00;62537.16;5011822;28;19921;-90
2023/01/17 05:03:30;;;;;;;;;;;3.10;88.80;;;-151.14;100.00;62537.16;4995297;28;19922;-90
2023/01/17 05:05:58;;;;;;;;;;;3.10;88.80;;;1.77;100.00;62537.16;5010741;28;19933;-89
2023/01/17 05:08:26;;;;;;;;;;;3.10;88.90;;;1.78;100.00;62537.16;5011633;28;19943;-89
2023/01/17 05:10:54;;;;;;;;;;;3.10;88.90;;;-151.14;100.00;62537.16;5011184;28;19928;-89
2023/01/17 05:13:22;;;;;;;;;;;3.10;88.90;;;-151.14;100.00;62537.16;5011560;28;19921;-89
2023/01/17 05:15:50;;;;;;;;;;;3.10;88.90;;;-151.14;100.00;62537.16;5010625;28;19928;-90
2023/01/17 05:18:18;;;;;;;;;;;3.10;88.90;;;1.78;100.00;62537.16;4995137;28;19928;-89
2023/01/17 05:20:48;;;;;;;;;;;3.10;88.90;;;-151.14;100.00;62537.16;5011042;28;19921;-90
2023/01/17 05:23:15;;;;;;;;;;;3.10;88.90;;;-151.14;100.00;62537.16;5011356;28;20249;-90
2023/01/17 05:25:44;;;;;;;;;;;3.10;88.80;;;-151.14;100.00;62537.16;5010684;28;19921;-89
2023/01/17 05:28:12;;;;;;;;;;;3.10;88.80;;;-151.14;100.00;62537.16;5011080;28;19928;-90
2023/01/17 05:30:40;;;;;;;;;;;3.10;88.80;;;-151.14;100.00;62537.16;5008813;28;20239;-88
2023/01/17 05:33:09;;;;;;;;;;;3.10;88.80;;;-151.14;100.00;62537.16;5011157;28;19941;-89
2023/01/17 05:35:37;;;;;;;;;;;3.10;88.80;;;-151.14;100.00;62537.16;5010541;28;19922;-89
2023/01/17 05:38:06;;;;;;;;;;;3.10;88.80;;;20.72;100.00;62537.16;5011069;28;19921;-89
2023/01/17 05:40:34;;;;;;;;;;;3.10;88.80;;;1.80;100.00;62537.16;4999088;28;19927;-90
2023/01/17 05:43:02;;;;;;;;;;;3.10;88.90;;;-151.14;100.00;62537.16;5010889;28;19928;-90
2023/01/17 05:45:32;;;;;;;;;;;3.10;89.70;;;1.78;100.00;62537.16;5010340;28;19932;-90
2023/01/17 05:48:00;;;;;;;;;;;3.10;88.80;;;-151.14;100.00;62537.16;5027288;28;19921;-89
2023/01/17 05:50:29;;;;;;;;;;;3.10;88.90;;;-151.14;100.00;62537.16;4994735;28;19922;-89
2023/01/17 05:52:57;;;;;;;;;;;3.10;89.00;;;-151.14;100.00;62537.16;4994742;28;20098;-89
2023/01/17 05:55:27;;;;;;;;;;;3.10;88.90;;;-151.14;100.00;62537.16;5010322;28;19936;-90
2023/01/17 05:57:55;;;;;;;;;;;3.10;89.00;;;-151.14;100.00;62537.16;5010800;28;19921;-88
2023/01/17 06:00:23;;;;;;;;;;;3.10;89.00;;;1.75;100.00;62537.16;4994734;28;19922;-90
2023/01/17 06:02:53;;;;;;;;;;;3.10;88.90;;;-151.14;100.00;62537.16;5026565;28;20128;-89
2023/01/17 06:05:21;;;;;;;;;;;3.10;88.90;;;-151.14;100.00;62537.16;5054119;22;19928;-80
2023/01/17 06:07:49;;;;;;;;;;;3.10;88.90;;;-151.14;100.00;62537.16;5031350;28;19975;-80
2023/01/17 06:10:17;;;;;;;;;;;3.10;88.90;;;-151.14;100.00;62537.16;5013952;28;19921;-80
2023/01/17 06:12:47;;;;;;;;;;;3.10;88.90;;;1.78;100.00;62537.16;5030043;28;19921;-80
2023/01/17 06:15:16;;;;;;;;;;;3.10;88.90;;;-151.14;100.00;62537.16;5029535;28;19928;-80
2023/01/17 06:17:44;;;;;;;;;;;3.10;88.90;;;1.76;100.00;62537.16;5013558;28;19928;-80
2023/01/17 06:20:12;;;;;;;;;;;3.10;88.90;;;-151.14;100.00;62537.16;5030142;28;20116;-80
2023/01/17 06:22:40;;;;;;;;;;;3.10;88.90;;;-151.14;100.00;62537.16;5030957;28;19935;-80
2023/01/17 06:25:09;;;;;;;;;;;3.10;88.90;;;-151.14;100.00;62537.16;5013327;28;19929;-80
2023/01/17 06:27:36;;;;;;;;;;;3.10;88.90;;;1.77;100.00;62537.16;5013511;28;19921;-80
2023/01/17 06:30:07;;;;;;;;;;;3.10;88.90;;;-151.14;100.00;62537.16;5030117;28;19921;-80
2023/01/17 06:32:35;;;;;;;;;;;3.10;88.90;;;-151.14;100.00;62537.16;5029511;28;19921;-80
2023/01/17 06:35:03;;;;;;;;;;;3.10;88.90;;;-151.14;100.00;62537.16;5029884;28;19935;-80
2023/01/17 06:37:31;;;;;;;;;;;3.10;88.90;;;-151.14;100.00;62537.16;5029745;28;19925;-80
2023/01/17 06:39:59;;;;;;;;;;;3.20;88.80;;;18.10;100.00;62537.16;5031132;28;19939;-80
2023/01/17 06:42:27;;;;;;;;;;;3.10;88.80;;;-151.14;100.00;62537.16;5013314;28;19921;-80
2023/01/17 06:44:55;;;;;;;;;;;3.20;88.70;;;-151.14;100.00;62537.16;5013496;28;19925;-80
2023/01/17 06:47:24;;;;;;;;;;;3.20;88.70;;;-151.14;100.00;62537.16;5012362;28;20216;-80
2023/01/17 06:49:52;;;;;;;;;;;3.20;88.70;;;-151.14;100.00;62537.16;5013354;28;19921;-80
2023/01/17 06:52:20;;;;;;;;;;;3.20;88.60;;;-151.14;100.00;62537.16;5013209;28;19921;-80
2023/01/17 06:54:48;;;;;;;;;;;3.20;88.60;;;-151.14;100.00;62537.16;5029738;28;19925;-80
2023/01/17 06:57:16;;;;;;;;;;;3.20;88.70;;;-151.14;100.00;62537.16;5029185;28;19921;-80
2023/01/17 06:59:44;;;;;;;;;;;3.20;88.70;;;-151.14;100.00;62537.16;5013457;28;19921;-80
2023/01/17 07:02:11;;;;;;;;;;;3.20;88.70;;;-151.14;100.00;62537.16;5027182;28;20322;-80
2023/01/17 07:04:41;;;;;;;;;;;3.20;88.60;;;1.81;100.00;62537.16;5029661;28;20327;-80
2023/01/17 07:07:09;;;;;;;;;;;3.20;88.60;;;-151.14;100.00;62537.16;5028291;28;19921;-80
2023/01/17 07:09:37;;;;;;;;;;;3.10;88.60;;;-151.14;100.00;62537.16;5029368;28;19992;-80
2023/01/17 07:12:05;;;;;;;;;;;3.20;88.60;;;-151.14;100.00;62537.16;5013306;28;19928;-80
2023/01/17 07:14:33;;;;;;;;;;;3.10;88.60;;;-151.14;100.00;62537.16;5032529;28;19953;-80
2023/01/17 07:17:01;;;;;;;;;;;3.20;88.60;;;-151.14;100.00;62537.16;5016481;28;20220;-81
2023/01/17 07:19:29;;;;;;;;;;;3.10;88.70;;;-151.14;100.00;62537.16;5018021;28;19928;-81
2023/01/17 07:21:58;;;;;;;;;;;3.20;88.60;;;-151.14;100.00;62537.16;5017216;28;19921;-82
2023/01/17 07:24:26;;;;;;;;;;;3.10;88.60;;;-151.14;100.00;62537.16;5016279;28;20217;-81
2023/01/17 07:26:54;;;;;;;;;;;3.20;88.60;;;18.10;100.00;62537.16;5048793;28;20212;-82
2023/01/17 07:29:22;;;;;;;;;;;3.20;88.60;;;-151.14;100.00;62537.16;5016365;28;20098;-81
2023/01/17 07:31:50;;;;;;;;;;;3.20;88.60;;;-151.14;100.00;62537.16;5033888;28;19927;-82
2023/01/17 07:34:18;;;;;;;;;;;3.20;88.60;;;1.82;100.00;62537.16;5016865;28;19928;-81
2023/01/17 07:36:48;;;;;;;;;;;3.20;88.60;;;-151.14;100.00;62537.16;5022473;28;19925;-81
2023/01/17 07:39:17;;;;;;;;;;;3.20;88.60;;;-151.14;100.00;62537.16;5032678;28;20231;-82
2023/01/17 07:41:46;;;;;;;;;;;3.20;88.50;;;1.83;100.00;62537.16;5033549;28;19927;-82
2023/01/17 07:44:14;;;;;;;;;;;3.20;88.50;;;-151.14;100.00;62537.16;5032354;28;20115;-82
2023/01/17 07:46:41;;;;;;;;;;;3.20;88.50;;;-151.14;100.00;62537.16;5031382;28;19921;-81
2023/01/17 07:49:09;;;;;;;;;;;3.20;88.60;;;-151.14;100.00;62537.16;5048190;28;20254;-82
2023/01/17 07:51:37;;;;;;;;;;;3.20;88.50;;;-151.14;100.00;62537.16;5032228;28;19936;-82
2023/01/17 07:54:05;;;;;;;;;;;3.20;88.60;;;1.83;100.00;82154.38;5015568;28;19921;-82
2023/01/17 07:56:35;;;;;;;;;;;3.20;88.60;;;-151.14;100.00;62537.16;5031486;28;19921;-82
2023/01/17 07:59:03;;;;;;;;;;;3.20;88.50;;;-151.14;100.00;62537.16;5033049;28;19921;-82
2023/01/17 08:01:30;;;;;;;;;;;3.20;88.50;;;-151.14;100.00;62537.16;5015900;28;19922;-82
2023/01/17 08:03:58;;;;;;;;;;;3.20;88.50;;;-151.14;100.00;62537.16;5032003;28;19921;-81
2023/01/17 08:06:28;;;;;;;;;;;3.20;88.50;;;18.10;100.00;62537.16;5031113;28;19921;-81
2023/01/17 08:08:57;;;;;;;;;;;3.20;88.50;;;-151.14;100.00;62537.16;5032768;28;19925;-82
2023/01/17 08:11:25;;;;;;;;;;;3.20;88.50;;;-151.14;100.00;62537.16;5032009;28;20111;-82
2023/01/17 08:13:58;;;;;;;;;;;3.20;88.50;;;-151.14;100.00;62537.16;5031871;28;19921;-82
2023/01/17 08:16:27;;;;;;;;;;;3.20;88.60;;;-151.14;100.00;62537.16;5031234;28;19943;-82
2023/01/17 08:18:55;;;;;;;;;;;3.20;88.60;;;1.81;100.00;62537.16;5031590;28;19927;-82
2023/01/17 08:21:23;;;;;;;;;;;3.20;88.60;;;-151.14;100.00;62537.16;5048187;28;19931;-81
2023/01/17 08:23:51;;;;;;;;;;;3.20;88.70;;;-151.14;100.00;62537.16;5015076;28;20116;-82
2023/01/17 08:26:21;;;;;;;;;;;3.20;88.60;;;1.81;100.00;62537.16;5030997;28;19921;-82
2023/01/17 08:28:49;;;;;;;;;;;3.20;88.70;;;-151.14;100.00;62537.16;5015162;28;19921;-82
2023/01/17 08:31:19;;;;;;;;;;;3.20;88.60;;;1.81;100.00;62537.16;5031495;28;19921;-82
2023/01/17 08:33:47;;;;;;;;;;;3.20;88.70;;;1.81;100.00;62537.16;5029773;28;19921;-82
2023/01/17 08:36:15;;;;;;;;;;;3.20;88.60;;;-151.14;100.00;62537.16;5030928;28;19943;-82
2023/01/17 08:38:43;;;;;;;;;;;3.20;88.60;;;-151.14;100.00;62537.16;5048029;28;19921;-81
2023/01/17 08:41:11;;;;;;;;;;;3.20;88.60;;;1.81;100.00;62537.16;5015216;28;19933;-81
2023/01/17 08:43:39;;;;;;;;;;;3.20;88.60;;;1.80;100.00;62537.16;5011577;28;19930;-82
2023/01/17 08:46:07;;;;;;;;;;;3.20;88.60;;;-151.14;100.00;62537.16;4994647;28;19922;-82
2023/01/17 08:48:36;;;;;;;;;;;3.10;88.70;;;-151.14;100.00;62537.16;4995536;28;20128;-82
2023/01/17 08:51:06;;;;;;;;;;;3.20;88.60;;;-151.14;100.00;62537.16;5011438;28;19922;-81
2023/01/17 08:53:34;;;;;;;;;;;3.10;88.70;;;-151.14;100.00;62537.16;5011565;28;19921;-82
2023/01/17 08:56:02;;;;;;;;;;;3.10;88.70;;;-151.14;100.00;62537.16;5027122;28;19922;-81
2023/01/17 08:58:30;;;;;;;;;;;3.20;88.70;;;-151.14;100.00;62537.16;4995280;28;19921;-81
2023/01/17 09:01:00;;;;;;;;;;;3.20;88.70;;;1.78;100.00;62537.16;5011375;28;19985;-81
2023/01/17 09:03:28;;;;;;;;;;;3.10;88.70;;;1.78;100.00;62537.16;5027655;28;19921;-81
2023/01/17 09:06:02;;;;;;;;;;;3.10;88.70;;;-151.14;100.00;62537.16;5010853;28;19922;-82
2023/01/17 09:08:30;;;;;;;;;;;3.10;88.70;;;-151.14;100.00;62537.16;5012494;28;20136;-82
2023/01/17 09:10:58;;;;;;;;;;;3.10;88.60;;;-151.14;100.00;62537.16;5011091;28;19921;-82
2023/01/17 09:13:26;;;;;;;;;;;3.10;88.60;;;-151.14;100.00;62537.16;5004885;28;19921;-82
2023/01/17 09:15:56;;;;;;;;;;;3.10;88.70;;;-151.14;100.00;62537.16;5013602;28;20116;-82
2023/01/17 09:18:24;;;;;;;;;;;3.10;88.70;;;1.78;100.00;62537.16;5014554;28;19928;-81
2023/01/17 09:20:54;;;;;;;;;;;3.10;88.70;;;-151.14;100.00;62537.16;5030759;28;19921;-81
2023/01/17 09:23:23;;;;;;;;;;;3.10;88.70;;;-151.14;100.00;62537.16;5014438;28;19937;-81
2023/01/17 09:25:54;;;;;;;;;;;3.10;88.70;;;1.77;100.00;62537.16;5030247;28;19927;-81
2023/01/17 09:28:22;;;;;;;;;;;3.10;88.80;;;-151.14;100.00;62537.16;5030921;28;19927;-82
2023/01/17 09:30:50;;;;;;;;;;;3.10;88.70;;;-151.14;100.00;62537.16;5031683;28;19921;-81
2023/01/17 09:33:18;;;;;;;;;;;3.10;88.60;;;-151.14;100.00;62537.16;5014255;28;19922;-81
2023/01/17 09:35:46;;;;;;;;;;;3.10;88.60;;;1.78;100.00;62537.16;5012992;28;19921;-81
2023/01/17 09:38:14;;;;;;;;;;;3.10;88.60;;;-151.14;100.00;62537.16;5030483;28;19925;-81
2023/01/17 09:40:45;;;;;;;;;;;3.10;88.60;;;-151.14;100.00;62537.16;5014136;28;20120;-81
2023/01/17 09:43:18;;;;;;;;;;;3.10;89.30;;;-151.14;100.00;62537.16;5027229;28;19922;-81
2023/01/17 09:45:46;;;;;;;;;;;3.10;88.40;;;-151.14;100.00;62537.16;5009969;28;19928;-81
2023/01/17 09:48:16;;;;;;;;;;;3.10;88.50;;;1.77;100.00;62537.16;5012135;28;19922;-81
2023/01/17 09:50:47;;;;;;;;;;;3.10;88.40;;;-151.14;100.00;62537.16;5010761;28;19928;-81
2023/01/17 09:53:17;;;;;;;;;;;3.10;88.40;;;1.76;100.00;62537.16;5013587;28;19931;-81
2023/01/17 09:55:58;;;;;;;;;;;3.10;88.40;;;-151.14;100.00;62537.16;5029996;28;19925;-81
2023/01/17 09:58:30;;;;;;;;;;;3.10;88.40;;;1.76;100.00;62537.16;5030631;28;19921;-81
2023/01/17 10:01:02;;;;;;;;;;;3.10;88.40;;;1.76;100.00;62537.16;5013763;28;19921;-81
2023/01/17 10:03:43;;;;;;;;;;;3.10;88.40;;;1.76;100.00;62537.16;5013864;28;19927;-81
2023/01/17 10:06:20;;;;;;;;;;;3.10;88.40;;;1.78;100.00;62537.16;5013119;28;19929;-82
2023/01/17 10:08:59;;;;;;;;;;;3.10;88.40;;;-151.14;100.00;62537.16;5013920;28;19921;-81
2023/01/17 10:11:52;;;;;;;;;;;3.10;88.40;;;-151.14;100.00;62537.16;5013634;28;19921;-81
2023/01/17 10:14:31;;;;;;;;;;;3.10;88.40;;;-151.14;100.00;62537.16;5010035;28;19922;-81
2023/01/17 10:17:02;;;;;;;;;;;3.10;88.30;;;-151.14;100.00;62537.16;4993477;28;19928;-81
2023/01/17 10:19:40;;;;;;;;;;;3.10;88.30;;;-151.14;100.00;62537.16;5030089;28;19929;-81
2023/01/17 10:22:18;;;;;;;;;;;3.10;88.30;;;1.75;100.00;62537.16;5029971;28;19927;-81
2023/01/17 10:24:57;;;;;;;;;;;3.10;88.30;;;-151.14;100.00;62537.16;5029995;28;19921;-81
2023/01/17 10:27:29;;;;;;;;;;;3.10;88.20;;;-151.14;100.00;62537.16;5046185;28;19921;-81
2023/01/17 10:29:57;;;;;;;;;;;3.10;88.30;;;-151.14;100.00;62537.16;5029636;28;19929;-81
2023/01/17 10:32:26;;;;;;;;;;;3.10;88.30;;;-151.14;100.00;62537.16;5013448;28;19925;-81
2023/01/17 10:34:54;;;;;;;;;;;3.10;88.30;;;1.74;100.00;62537.16;5029699;28;19921;-81
2023/01/17 10:37:24;;;;;;;;;;;3.10;88.30;;;1.76;100.00;62537.16;5013169;28;20136;-81
2023/01/17 10:39:53;;;;;;;;;;;3.10;88.30;;;-151.14;100.00;62537.16;5014069;28;19921;-81
2023/01/17 10:42:22;;;;;;;;;;;3.10;88.30;;;1.76;100.00;62537.16;5034728;28;19927;-81
2023/01/17 10:44:55;;;;;;;;;;;3.10;88.20;;;1.74;100.00;62537.16;5035688;28;19922;-81
2023/01/17 10:47:26;;;;;;;;;;;3.10;88.20;;;-151.14;100.00;62537.16;5018333;28;19931;-81
2023/01/17 10:49:56;;;;;;;;;;;3.10;88.30;;;-151.14;100.00;62537.16;5022274;28;20205;-81
2023/01/17 10:52:30;;;;;;;;;;;3.10;88.20;;;-151.14;100.00;62537.16;5022140;28;19927;-81
2023/01/17 10:55:05;;;;;;;;;;;3.10;88.20;;;-151.14;100.00;62537.16;5038326;28;20147;-80
2023/01/17 10:57:39;;;;;;;;;;;3.10;88.10;;;1.78;100.00;62537.16;5038579;28;19927;-81
2023/01/17 11:00:32;;;;;;;;;;;3.10;88.10;;;-151.14;100.00;62537.16;5044582;28;19921;-81
2023/01/17 11:03:00;;;;;;;;;;;3.10;88.00;;;-151.14;100.00;62537.16;5039026;28;19925;-81
2023/01/17 11:05:29;;;;;;;;;;;3.10;88.10;;;1.79;100.00;62537.16;5034268;28;19928;-82
2023/01/17 11:07:58;;;;;;;;;;;3.20;88.00;;;-151.14;100.00;62537.16;5019152;28;19928;-82
2023/01/17 11:10:38;;;;;;;;;;;3.20;87.90;;;-151.14;100.00;62537.16;5013209;28;19925;-81
2023/01/17 11:13:16;;;;;;;;;;;3.20;87.90;;;-151.14;100.00;62537.16;5013271;28;19921;-82
2023/01/17 11:15:47;;;;;;;;;;;3.20;87.80;;;-151.14;100.00;62537.16;5012309;28;19922;-82
2023/01/17 11:18:15;;;;;;;;;;;3.20;87.80;;;-151.14;100.00;62537.16;5013092;28;20236;-82
2023/01/17 11:20:43;;;;;;;;;;;3.20;87.80;;;-151.14;100.00;62537.16;5012883;28;19952;-82
2023/01/17 11:23:14;;;;;;;;;;;3.20;87.80;;;-151.14;100.00;62537.16;5013155;28;19928;-82
2023/01/17 11:25:48;;;;;;;;;;;3.20;87.70;;;-151.14;100.00;62537.16;5028616;28;19921;-82
2023/01/17 11:28:22;;;;;;;;;;;3.30;87.70;;;-151.14;100.00;62537.16;5013174;28;19921;-82
2023/01/17 11:30:55;;;;;;;;;;;3.30;87.50;;;-151.14;100.00;62537.16;5012623;28;19921;-82
2023/01/17 11:33:44;;;;;;;;;;;3.30;87.30;;;-151.14;100.00;62537.16;5013093;28;19921;-82
2023/01/17 11:36:17;;;;;;;;;;;3.30;87.10;;;1.98;100.00;62537.16;5011969;28;20184;-82
2023/01/17 11:38:58;;;;;;;;;;;3.40;87.00;;;-151.14;100.00;62537.16;5012798;28;20205;-82
2023/01/17 11:41:27;;;;;;;;;;;3.40;86.80;;;-151.14;100.00;62537.16;5012506;28;19928;-82
2023/01/17 11:43:57;;;;;;;;;;;3.40;86.70;;;-151.14;100.00;62537.16;5012698;28;20128;-82
2023/01/17 11:46:28;;;;;;;;;;;3.40;86.60;;;-151.14;100.00;62537.16;5011949;28;19934;-82
2023/01/17 11:48:58;;;;;;;;;;;3.40;86.70;;;-151.14;100.00;62537.16;5012621;28;20234;-81
2023/01/17 11:51:28;;;;;;;;;;;3.40;86.50;;;-151.14;100.00;62537.16;5028998;28;19929;-82
2023/01/17 11:54:03;;;;;;;;;;;3.40;86.50;;;-151.14;100.00;62537.16;5029032;28;19935;-82
2023/01/17 11:56:32;;;;;;;;;;;3.40;86.50;;;-151.14;100.00;62537.16;5014949;28;19921;-81
2023/01/17 11:59:27;;;;;;;;;;;3.40;86.50;;;-151.14;100.00;62537.16;5031669;28;19922;-82
2023/01/17 12:02:18;;;;;;;;;;;3.40;86.50;;;-151.14;100.00;62537.16;5030567;28;19928;-81
2023/01/17 12:04:47;;;;;;;;;;;3.40;86.50;;;-151.14;100.00;62537.16;5005932;28;20116;-81
2023/01/17 12:07:20;;;;;;;;;;;3.40;86.40;;;1.99;100.00;62537.16;5055652;22;19928;-91
2023/01/17 12:09:52;;;;;;;;;;;3.40;86.50;;;-151.14;100.00;62537.16;5051841;28;20241;-91
2023/01/17 12:15:13;;;;;;;;;;;3.40;86.50;;;;;;5051374;28;20122;-90
2023/01/17 12:17:53;;;;;;;;;;;3.40;86.50;;;1.99;100.00;62537.16;5031744;28;19921;-91
2023/01/17 12:20:25;;;;;;;;;;;3.30;86.50;;;-151.14;100.00;62537.16;5032324;28;19921;-91
2023/01/17 12:23:16;;;;;;;;;;;3.30;86.60;;;-151.14;100.00;62537.16;5051700;28;20119;-90
2023/01/17 12:25:54;;;;;;;;;;;3.30;86.70;;;18.09;100.00;62537.16;5041327;28;19921;-90
2023/01/17 12:28:31;;;;;;;;;;;3.30;86.90;;;-151.14;100.00;62537.16;5068372;28;19921;-88
2023/01/17 12:31:06;;;;;;;;;;;3.30;86.90;;;-151.14;100.00;62537.16;5066974;28;20123;-88
2023/01/17 12:33:38;;;;;;;;;;;3.30;86.90;;;1.95;100.00;62537.16;5068440;28;19921;-88
2023/01/17 12:36:16;;;;;;;;;;;3.30;86.90;;;-151.14;100.00;62537.16;5067745;28;19921;-89
2023/01/17 12:38:45;;;;;;;;;;;3.30;87.00;;;1.95;100.00;62537.16;5068349;28;20230;-88
2023/01/17 12:41:16;;;;;;;;;;;3.30;86.90;;;-151.14;100.00;62537.16;5051324;28;19928;-86
2023/01/17 12:43:44;;;;;;;;;;;3.30;87.00;;;-151.14;100.00;62537.16;5051391;28;19921;-88
2023/01/17 12:46:19;;;;;;;;;;;3.30;86.90;;;-151.14;100.00;62537.16;5050585;28;19931;-88
2023/01/17 12:48:51;;;;;;;;;;;3.30;86.90;;;-151.14;100.00;62537.16;5051217;28;19921;-88